createdAt,value
2019-04-03T00:00:40.551Z,99783.73
2019-04-03T00:01:47.708Z,99780.20
2019-04-03T00:02:54.786Z,99778.82
2019-04-03T00:04:05.421Z,99767.26
2019-04-03T00:05:12.347Z,99764.59
2019-04-03T00:06:19.232Z,99750.28
2019-04-03T00:07:26.047Z,99758.25
2019-04-03T00:08:32.792Z,99760.86
2019-04-03T00:09:39.866Z,99766.84
2019-04-03T00:10:46.599Z,99767.36
2019-04-03T00:11:53.609Z,99769.05
2019-04-03T00:13:00.419Z,99776.72
2019-04-03T00:14:07.783Z,99769.92
2019-04-03T00:15:14.933Z,99779.75
2019-04-03T00:16:21.679Z,99775.59
2019-04-03T00:17:28.464Z,99778.15
2019-04-03T00:18:35.583Z,99777.48
2019-04-03T00:19:42.360Z,99780.81
2019-04-03T00:20:49.290Z,99782.36
2019-04-03T00:21:56.058Z,99782.45
2019-04-03T00:23:03.059Z,99776.52
2019-04-03T00:24:09.796Z,99778.40
2019-04-03T00:25:16.543Z,99774.02
2019-04-03T00:26:23.350Z,99774.23
2019-04-03T00:27:30.753Z,99768.19
2019-04-03T00:28:37.700Z,99769.25
2019-04-03T00:29:44.541Z,99772.17
2019-04-03T00:30:52.963Z,99777.93
2019-04-03T00:31:59.683Z,99770.90
2019-04-03T00:33:06.429Z,99771.67
2019-04-03T00:34:13.223Z,99772.08
2019-04-03T00:35:22.951Z,99772.13
2019-04-03T00:36:29.075Z,99774.16
2019-04-03T00:37:36.118Z,99769.05
2019-04-03T00:38:42.854Z,99767.66
2019-04-03T00:39:49.748Z,99771.45
2019-04-03T00:40:56.840Z,99770.27
2019-04-03T00:42:03.901Z,99766.50
2019-04-03T00:43:10.995Z,99772.63
2019-04-03T00:44:17.770Z,99775.74
2019-04-03T00:45:25.090Z,99776.52
2019-04-03T00:46:32.538Z,99775.96
2019-04-03T00:47:39.484Z,99770.80
2019-04-03T00:48:46.215Z,99776.73
2019-04-03T00:49:53.395Z,99773.30
2019-04-03T00:51:00.680Z,99776.31
2019-04-03T00:52:07.837Z,99767.01
2019-04-03T00:53:15.329Z,99768.28
2019-04-03T00:54:22.249Z,99772.02
2019-04-03T00:55:29.066Z,99771.59
2019-04-03T00:56:36.246Z,99776.36
2019-04-03T00:57:43.026Z,99776.47
2019-04-03T00:58:50.004Z,99777.80
2019-04-03T00:59:57.367Z,99777.42
2019-04-03T01:01:05.127Z,99773.03
2019-04-03T01:02:11.878Z,99778.63
2019-04-03T01:03:18.611Z,99778.20
2019-04-03T01:04:28.274Z,99780.25
2019-04-03T01:05:34.364Z,99776.42
2019-04-03T01:06:41.100Z,99766.89
2019-04-03T01:07:47.826Z,99774.56
2019-04-03T01:08:54.829Z,99778.30
2019-04-03T01:10:01.894Z,99777.70
2019-04-03T01:11:08.659Z,99779.30
2019-04-03T01:12:15.388Z,99777.95
2019-04-03T01:13:22.490Z,99778.77
2019-04-03T01:14:31.302Z,99781.02
2019-04-03T01:15:38.410Z,99778.92
2019-04-03T01:16:45.966Z,99781.85
2019-04-03T01:17:52.725Z,99785.09
2019-04-03T01:18:59.563Z,99784.14
2019-04-03T01:20:07.980Z,99784.19
2019-04-03T01:21:14.719Z,99780.76
2019-04-03T01:22:21.555Z,99785.42
2019-04-03T01:23:28.692Z,99789.16
2019-04-03T01:24:38.047Z,99786.24
2019-04-03T01:25:44.265Z,99784.19
2019-04-03T01:26:51.649Z,99789.70
2019-04-03T01:27:58.898Z,99786.30
2019-04-03T01:29:05.664Z,99783.31
2019-04-03T01:30:13.964Z,99785.37
2019-04-03T01:31:21.148Z,99782.91
2019-04-03T01:32:28.031Z,99780.86
2019-04-03T01:33:35.768Z,99780.81
2019-04-03T01:34:42.667Z,99784.64
2019-04-03T01:35:49.407Z,99792.31
2019-04-03T01:36:56.154Z,99789.20
2019-04-03T01:38:02.927Z,99778.92
2019-04-03T01:39:10.451Z,99782.71
2019-04-03T01:40:20.302Z,99780.25
2019-04-03T01:41:25.937Z,99785.88
2019-04-03T01:42:32.742Z,99783.92
2019-04-03T01:43:40.363Z,99780.53
2019-04-03T01:44:47.130Z,99784.80
2019-04-03T01:45:56.580Z,99780.76
2019-04-03T01:47:02.730Z,99785.82
2019-04-03T01:48:09.591Z,99783.88
2019-04-03T01:49:16.373Z,99782.64
2019-04-03T01:50:23.223Z,99786.30
2019-04-03T01:51:30.385Z,99791.75
2019-04-03T01:52:37.358Z,99788.55
2019-04-03T01:53:44.495Z,99788.02
2019-04-03T01:54:52.038Z,99790.89
2019-04-03T01:55:58.770Z,99793.91
2019-04-03T01:57:06.427Z,99785.51
2019-04-03T01:58:14.143Z,99787.52
2019-04-03T01:59:20.993Z,99786.46
2019-04-03T02:00:28.099Z,99788.06
2019-04-03T02:01:37.908Z,99795.19
2019-04-03T02:02:45.006Z,99788.75
2019-04-03T02:03:51.738Z,99785.87
2019-04-03T02:04:58.973Z,99785.65
2019-04-03T02:06:05.844Z,99783.59
2019-04-03T02:07:14.494Z,99784.63
2019-04-03T02:08:21.041Z,99789.51
2019-04-03T02:09:27.865Z,99788.47
2019-04-03T02:10:35.297Z,99789.38
2019-04-03T02:11:42.450Z,99785.41
2019-04-03T02:12:51.243Z,99790.48
2019-04-03T02:13:58.023Z,99793.86
2019-04-03T02:15:05.298Z,99793.98
2019-04-03T02:16:12.432Z,99792.20
2019-04-03T02:17:19.178Z,99798.25
2019-04-03T02:18:26.351Z,99794.94
2019-04-03T02:19:33.945Z,99796.84
2019-04-03T02:20:40.795Z,99796.88
2019-04-03T02:21:47.558Z,99807.02
2019-04-03T02:22:54.368Z,99801.16
2019-04-03T02:24:01.846Z,99800.22
2019-04-03T02:25:09.089Z,99806.23
2019-04-03T02:26:15.879Z,99802.08
2019-04-03T02:27:22.638Z,99798.70
2019-04-03T02:28:29.361Z,99802.13
2019-04-03T02:29:36.095Z,99807.23
2019-04-03T02:30:46.115Z,99807.89
2019-04-03T02:31:52.644Z,99805.29
2019-04-03T02:33:00.421Z,99807.97
2019-04-03T02:34:07.196Z,99803.36
2019-04-03T02:35:14.218Z,99799.98
2019-04-03T02:36:20.961Z,99803.80
2019-04-03T02:37:27.684Z,99798.75
2019-04-03T02:38:34.447Z,99797.96
2019-04-03T02:39:41.194Z,99799.57
2019-04-03T02:40:47.938Z,99807.59
2019-04-03T02:41:54.884Z,99803.80
2019-04-03T02:43:01.881Z,99799.61
2019-04-03T02:44:08.638Z,99806.36
2019-04-03T02:45:16.518Z,99803.77
2019-04-03T02:46:26.912Z,99805.46
2019-04-03T02:47:33.500Z,99806.41
2019-04-03T02:48:40.505Z,99803.40
2019-04-03T02:49:47.220Z,99800.06
2019-04-03T02:50:54.584Z,99800.52
2019-04-03T02:52:01.312Z,99802.70
2019-04-03T02:53:09.975Z,99801.96
2019-04-03T02:54:39.763Z,99799.90
2019-04-03T02:55:46.504Z,99796.52
2019-04-03T02:56:53.547Z,99799.98
2019-04-03T02:58:00.601Z,99798.30
2019-04-03T02:59:07.794Z,99794.05
2019-04-03T03:00:14.928Z,99792.78
2019-04-03T03:01:22.024Z,99788.91
2019-04-03T03:02:28.906Z,99796.69
2019-04-03T03:03:35.938Z,99793.35
2019-04-03T03:04:42.906Z,99796.36
2019-04-03T03:05:49.898Z,99789.94
2019-04-03T03:06:57.447Z,99796.69
2019-04-03T03:08:08.212Z,99790.77
2019-04-03T03:09:14.523Z,99782.66
2019-04-03T03:10:21.955Z,99785.57
2019-04-03T03:11:29.583Z,99789.73
2019-04-03T03:12:39.799Z,99791.95
2019-04-03T03:13:48.877Z,99788.08
2019-04-03T03:14:56.439Z,99787.30
2019-04-03T03:16:03.362Z,99791.02
2019-04-03T03:17:10.458Z,99795.09
2019-04-03T03:18:18.696Z,99798.45
2019-04-03T03:19:26.273Z,99793.69
2019-04-03T03:20:34.492Z,99794.14
2019-04-03T03:21:44.687Z,99796.77
2019-04-03T03:22:54.709Z,99797.10
2019-04-03T03:24:02.827Z,99793.55
2019-04-03T03:25:10.394Z,99793.15
2019-04-03T03:26:17.892Z,99789.27
2019-04-03T03:27:25.619Z,99786.68
2019-04-03T03:28:33.279Z,99797.42
2019-04-03T03:29:41.140Z,99791.95
2019-04-03T03:30:57.729Z,99791.58
2019-04-03T03:32:10.751Z,99791.54
2019-04-03T03:33:28.926Z,99788.98
2019-04-03T03:34:43.560Z,99789.90
2019-04-03T03:35:31.458Z,99787.87
2019-04-03T03:36:36.941Z,99796.03
2019-04-03T03:37:45.466Z,99799.36
2019-04-03T03:38:52.608Z,99806.77
2019-04-03T03:40:01.209Z,99798.30
2019-04-03T03:41:08.627Z,99805.54
2019-04-03T03:42:16.408Z,99798.86
2019-04-03T03:43:24.091Z,99798.42
2019-04-03T03:44:31.895Z,99793.68
2019-04-03T03:45:39.982Z,99800.10
2019-04-03T03:46:47.281Z,99803.73
2019-04-03T03:47:57.319Z,99800.48
2019-04-03T03:49:04.848Z,99799.69
2019-04-03T03:50:12.285Z,99791.17
2019-04-03T03:51:19.900Z,99790.92
2019-04-03T03:52:27.616Z,99786.69
2019-04-03T03:53:35.599Z,99790.19
2019-04-03T03:54:42.841Z,99790.02
2019-04-03T03:55:50.990Z,99791.08
2019-04-03T03:56:58.435Z,99793.79
2019-04-03T03:58:10.810Z,99799.95
2019-04-03T03:59:17.654Z,99797.89
2019-04-03T04:00:25.033Z,99799.99
2019-04-03T04:01:32.879Z,99798.68
2019-04-03T04:02:43.725Z,99796.55
2019-04-03T04:03:49.026Z,99799.29
2019-04-03T04:04:57.003Z,99790.40
2019-04-03T04:06:03.979Z,99794.19
2019-04-03T04:07:11.330Z,99796.73
2019-04-03T04:08:19.574Z,99792.61
2019-04-03T04:09:26.862Z,99801.21
2019-04-03T04:10:37.135Z,99799.64
2019-04-03T04:11:44.480Z,99800.23
2019-04-03T04:12:51.661Z,99799.34
2019-04-03T04:13:58.947Z,99799.75
2019-04-03T04:15:06.744Z,99799.34
2019-04-03T04:16:13.546Z,99802.42
2019-04-03T04:17:21.735Z,99801.22
2019-04-03T04:18:28.911Z,99808.61
2019-04-03T04:19:37.765Z,99810.74
2019-04-03T04:20:44.540Z,99802.50
2019-04-03T04:21:52.107Z,99806.28
2019-04-03T04:22:59.706Z,99805.38
2019-04-03T04:24:07.407Z,99805.68
2019-04-03T04:25:14.652Z,99808.83
2019-04-03T04:26:21.655Z,99813.81
2019-04-03T04:27:29.669Z,99810.67
2019-04-03T04:28:39.228Z,99808.23
2019-04-03T04:29:46.736Z,99811.64
2019-04-03T04:30:56.939Z,99814.60
2019-04-03T04:32:03.698Z,99812.35
2019-04-03T04:33:10.467Z,99810.81
2019-04-03T04:34:18.830Z,99811.86
2019-04-03T04:35:25.906Z,99808.83
2019-04-03T04:36:32.670Z,99805.41
2019-04-03T04:37:40.676Z,99809.08
2019-04-03T04:38:48.041Z,99813.25
2019-04-03T04:39:54.820Z,99813.70
2019-04-03T04:41:02.190Z,99809.16
2019-04-03T04:42:09.107Z,99813.54
2019-04-03T04:43:16.341Z,99814.20
2019-04-03T04:44:23.157Z,99823.19
2019-04-03T04:45:33.164Z,99819.02
2019-04-03T04:46:39.075Z,99823.33
2019-04-03T04:47:46.540Z,99822.84
2019-04-03T04:48:53.470Z,99824.22
2019-04-03T04:50:00.225Z,99822.95
2019-04-03T04:51:07.185Z,99828.05
2019-04-03T04:52:14.071Z,99831.11
2019-04-03T04:53:21.146Z,99829.36
2019-04-03T04:54:28.741Z,99828.18
2019-04-03T04:55:36.456Z,99826.19
2019-04-03T04:56:43.196Z,99825.39
2019-04-03T04:57:50.306Z,99832.72
2019-04-03T04:58:57.766Z,99833.99
2019-04-03T05:00:05.612Z,99829.28
2019-04-03T05:01:15.502Z,99829.69
2019-04-03T05:02:24.449Z,99836.55
2019-04-03T05:03:31.499Z,99836.41
2019-04-03T05:04:38.850Z,99828.25
2019-04-03T05:05:45.795Z,99826.22
2019-04-03T05:06:54.106Z,99822.81
2019-04-03T05:08:01.865Z,99828.70
2019-04-03T05:09:09.399Z,99827.80
2019-04-03T05:10:18.053Z,99825.22
2019-04-03T05:11:25.045Z,99827.02
2019-04-03T05:12:32.230Z,99825.36
2019-04-03T05:13:39.085Z,99828.22
2019-04-03T05:14:46.836Z,99822.95
2019-04-03T05:15:55.411Z,99825.46
2019-04-03T05:17:03.241Z,99830.55
2019-04-03T05:18:10.676Z,99834.86
2019-04-03T05:19:19.099Z,99832.34
2019-04-03T05:20:26.159Z,99831.55
2019-04-03T05:21:33.080Z,99828.25
2019-04-03T05:22:40.214Z,99829.05
2019-04-03T05:23:47.446Z,99835.48
2019-04-03T05:24:54.599Z,99832.90
2019-04-03T05:26:02.056Z,99836.72
2019-04-03T05:27:09.112Z,99834.66
2019-04-03T05:28:16.347Z,99833.34
2019-04-03T05:29:23.529Z,99839.72
2019-04-03T05:30:37.770Z,99835.48
2019-04-03T05:31:43.923Z,99834.66
2019-04-03T05:32:50.911Z,99838.44
2019-04-03T05:33:57.759Z,99835.86
2019-04-03T05:35:05.162Z,99839.13
2019-04-03T05:36:11.889Z,99842.50
2019-04-03T05:37:20.157Z,99838.20
2019-04-03T05:38:27.666Z,99842.40
2019-04-03T05:39:34.991Z,99839.47
2019-04-03T05:40:42.378Z,99840.16
2019-04-03T05:41:49.185Z,99834.58
2019-04-03T05:42:56.174Z,99835.06
2019-04-03T05:44:04.675Z,99841.47
2019-04-03T05:45:11.437Z,99837.65
2019-04-03T05:46:19.602Z,99841.06
2019-04-03T05:47:27.162Z,99837.65
2019-04-03T05:48:34.016Z,99846.09
2019-04-03T05:49:40.979Z,99834.14
2019-04-03T05:50:48.039Z,99831.96
2019-04-03T05:51:55.802Z,99836.47
2019-04-03T05:53:05.658Z,99840.23
2019-04-03T05:54:14.125Z,99842.70
2019-04-03T05:55:20.018Z,99839.63
2019-04-03T05:56:27.027Z,99838.73
2019-04-03T05:57:34.110Z,99844.14
2019-04-03T05:58:54.066Z,99844.14
2019-04-03T05:59:59.792Z,99837.59
2019-04-03T06:01:04.894Z,99841.41
2019-04-03T06:02:14.660Z,99843.09
2019-04-03T06:03:16.803Z,99844.89
2019-04-03T06:04:23.566Z,99845.34
2019-04-03T06:05:30.295Z,99854.71
2019-04-03T06:06:37.099Z,99855.65
2019-04-03T06:07:46.905Z,99858.09
2019-04-03T06:08:52.393Z,99859.81
2019-04-03T06:09:59.327Z,99858.43
2019-04-03T06:11:08.827Z,99857.45
2019-04-03T06:12:18.251Z,99856.80
2019-04-03T06:13:23.881Z,99851.84
2019-04-03T06:14:31.149Z,99853.83
2019-04-03T06:15:38.029Z,99850.83
2019-04-03T06:16:45.165Z,99849.33
2019-04-03T06:17:54.288Z,99849.52
2019-04-03T06:19:00.740Z,99847.41
2019-04-03T06:20:10.888Z,99850.80
2019-04-03T06:21:17.030Z,99851.05
2019-04-03T06:22:23.784Z,99844.34
2019-04-03T06:23:30.826Z,99854.13
2019-04-03T06:24:37.587Z,99846.52
2019-04-03T06:25:44.423Z,99848.58
2019-04-03T06:26:51.238Z,99848.99
2019-04-03T06:27:58.299Z,99845.28
2019-04-03T06:29:08.010Z,99848.84
2019-04-03T06:30:16.519Z,99850.00
2019-04-03T06:31:24.337Z,99845.98
2019-04-03T06:32:32.516Z,99849.77
2019-04-03T06:33:39.303Z,99844.15
2019-04-03T06:34:46.062Z,99838.12
2019-04-03T06:35:52.826Z,99839.80
2019-04-03T06:36:59.592Z,99835.34
2019-04-03T06:38:06.396Z,99830.20
2019-04-03T06:39:13.488Z,99840.09
2019-04-03T06:40:20.657Z,99842.75
2019-04-03T06:41:27.416Z,99842.75
2019-04-03T06:42:34.393Z,99840.73
2019-04-03T06:43:41.558Z,99842.83
2019-04-03T06:44:48.468Z,99845.68
2019-04-03T06:45:56.979Z,99853.52
2019-04-03T06:47:03.895Z,99847.25
2019-04-03T06:48:10.922Z,99847.33
2019-04-03T06:49:17.980Z,99847.22
2019-04-03T06:50:25.191Z,99854.67
2019-04-03T06:51:32.392Z,99848.22
2019-04-03T06:52:39.759Z,99853.77
2019-04-03T06:53:47.131Z,99844.33
2019-04-03T06:54:54.125Z,99846.95
2019-04-03T06:56:01.062Z,99854.00
2019-04-03T06:57:07.847Z,99852.14
2019-04-03T06:58:15.094Z,99848.38
2019-04-03T06:59:22.231Z,99853.10
2019-04-03T07:00:29.089Z,99847.33
2019-04-03T07:01:36.019Z,99846.92
2019-04-03T07:02:43.252Z,99846.39
2019-04-03T07:03:50.150Z,99846.92
2019-04-03T07:04:56.910Z,99853.97
2019-04-03T07:06:04.443Z,99848.64
2019-04-03T07:07:11.290Z,99846.88
2019-04-03T07:08:28.713Z,99851.08
2019-04-03T07:09:35.286Z,99850.30
2019-04-03T07:10:37.001Z,99851.69
2019-04-03T07:11:44.282Z,99856.55
2019-04-03T07:12:51.038Z,99858.01
2019-04-03T07:13:58.422Z,99861.39
2019-04-03T07:15:06.609Z,99865.06
2019-04-03T07:16:13.492Z,99864.98
2019-04-03T07:17:20.245Z,99873.34
2019-04-03T07:18:27.055Z,99872.81
2019-04-03T07:19:33.857Z,99874.81
2019-04-03T07:20:40.878Z,99871.06
2019-04-03T07:21:48.504Z,99877.72
2019-04-03T07:22:55.309Z,99880.84
2019-04-03T07:24:02.311Z,99881.81
2019-04-03T07:25:09.508Z,99880.61
2019-04-03T07:26:17.387Z,99886.91
2019-04-03T07:27:24.608Z,99881.92
2019-04-03T07:28:31.413Z,99889.02
2019-04-03T07:29:38.233Z,99887.70
2019-04-03T07:30:45.031Z,99894.05
2019-04-03T07:31:52.796Z,99888.83
2019-04-03T07:33:00.407Z,99888.52
2019-04-03T07:34:07.171Z,99889.48
2019-04-03T07:35:14.023Z,99892.78
2019-04-03T07:36:21.149Z,99890.05
2019-04-03T07:37:28.408Z,99893.66
2019-04-03T07:38:35.568Z,99889.64
2019-04-03T07:39:42.771Z,99888.73
2019-04-03T07:40:50.941Z,99886.23
2019-04-03T07:41:58.305Z,99892.13
2019-04-03T07:43:05.516Z,99891.19
2019-04-03T07:44:12.289Z,99885.40
2019-04-03T07:45:19.045Z,99892.94
2019-04-03T07:46:25.819Z,99894.96
2019-04-03T07:47:34.422Z,99897.58
2019-04-03T07:48:41.150Z,99900.55
2019-04-03T07:49:47.978Z,99901.87
2019-04-03T07:50:55.116Z,99904.22
2019-04-03T07:52:03.866Z,99908.63
2019-04-03T07:53:10.961Z,99904.55
2019-04-03T07:54:17.757Z,99910.73
2019-04-03T07:55:26.672Z,99914.36
2019-04-03T07:56:33.276Z,99910.98
2019-04-03T07:57:41.384Z,99908.17
2019-04-03T07:58:48.725Z,99915.59
2019-04-03T07:59:55.815Z,99912.53
2019-04-03T08:01:02.667Z,99916.95
2019-04-03T08:02:11.887Z,99913.98
2019-04-03T08:03:20.366Z,99913.61
2019-04-03T08:04:28.027Z,99914.48
2019-04-03T08:05:35.391Z,99919.39
2019-04-03T08:06:42.476Z,99915.96
2019-04-03T08:07:49.598Z,99915.51
2019-04-03T08:09:07.338Z,99916.63
2019-04-03T08:10:06.298Z,99914.06
2019-04-03T08:11:14.987Z,99908.21
2019-04-03T08:12:22.244Z,99913.32
2019-04-03T08:13:29.149Z,99911.70
2019-04-03T08:14:35.891Z,99912.23
2019-04-03T08:15:44.423Z,99911.12
2019-04-03T08:16:52.587Z,99914.86
2019-04-03T08:17:59.714Z,99913.67
2019-04-03T08:19:08.385Z,99920.06
2019-04-03T08:20:15.391Z,99910.63
2019-04-03T08:21:23.352Z,99913.36
2019-04-03T08:22:32.770Z,99915.77
2019-04-03T08:23:38.671Z,99912.83
2019-04-03T08:24:45.782Z,99904.38
2019-04-03T08:25:54.233Z,99907.82
2019-04-03T08:27:01.598Z,99906.34
2019-04-03T08:28:08.854Z,99910.03
2019-04-03T08:29:16.461Z,99905.39
2019-04-03T08:30:25.063Z,99908.47
2019-04-03T08:31:32.922Z,99913.04
2019-04-03T08:32:39.726Z,99911.93
2019-04-03T08:33:46.488Z,99908.45
2019-04-03T08:34:53.565Z,99905.30
2019-04-03T08:36:00.304Z,99910.84
2019-04-03T08:37:09.602Z,99905.86
2019-04-03T08:38:16.438Z,99902.13
2019-04-03T08:39:24.299Z,99898.59
2019-04-03T08:40:31.239Z,99902.30
2019-04-03T08:41:38.720Z,99902.15
2019-04-03T08:42:45.610Z,99901.14
2019-04-03T08:43:52.797Z,99910.83
2019-04-03T08:44:59.606Z,99904.98
2019-04-03T08:46:09.526Z,99910.27
2019-04-03T08:47:15.341Z,99911.78
2019-04-03T08:48:22.379Z,99915.58
2019-04-03T08:49:29.512Z,99915.33
2019-04-03T08:50:36.531Z,99921.39
2019-04-03T08:51:43.451Z,99917.48
2019-04-03T08:52:50.178Z,99926.37
2019-04-03T08:53:57.723Z,99933.50
2019-04-03T08:55:04.481Z,99926.17
2019-04-03T08:56:11.241Z,99926.23
2019-04-03T08:57:20.464Z,99925.63
2019-04-03T08:58:27.199Z,99925.58
2019-04-03T08:59:34.397Z,99929.28
2019-04-03T09:00:41.888Z,99926.52
2019-04-03T09:01:48.612Z,99926.70
2019-04-03T09:02:55.688Z,99925.23
2019-04-03T09:04:02.727Z,99927.41
2019-04-03T09:05:09.800Z,99922.08
2019-04-03T09:06:16.577Z,99917.55
2019-04-03T09:07:24.939Z,99915.44
2019-04-03T09:08:33.159Z,99918.55
2019-04-03T09:09:40.592Z,99912.53
2019-04-03T09:10:48.087Z,99916.38
2019-04-03T09:11:55.247Z,99908.16
2019-04-03T09:13:15.449Z,99908.05
2019-04-03T09:14:10.644Z,99904.31
2019-04-03T09:15:18.323Z,99917.14
2019-04-03T09:16:25.644Z,99913.03
2019-04-03T09:17:34.110Z,99907.70
2019-04-03T09:18:40.922Z,99910.42
2019-04-03T09:19:48.067Z,99906.83
2019-04-03T09:20:55.136Z,99906.83
2019-04-03T09:22:02.545Z,99905.45
2019-04-03T09:23:09.292Z,99907.46
2019-04-03T09:24:16.027Z,99909.32
2019-04-03T09:25:22.875Z,99907.67
2019-04-03T09:26:29.998Z,99909.75
2019-04-03T09:27:40.362Z,99915.72
2019-04-03T09:28:47.083Z,99912.41
2019-04-03T09:29:53.977Z,99915.80
2019-04-03T09:31:00.877Z,99911.92
2019-04-03T09:32:08.007Z,99912.67
2019-04-03T09:33:15.154Z,99910.06
2019-04-03T09:34:22.244Z,99910.30
2019-04-03T09:35:28.991Z,99910.06
2019-04-03T09:36:35.829Z,99903.45
2019-04-03T09:37:45.359Z,99908.89
2019-04-03T09:38:51.034Z,99898.81
2019-04-03T09:39:57.784Z,99898.30
2019-04-03T09:41:04.563Z,99893.50
2019-04-03T09:42:12.095Z,99892.97
2019-04-03T09:43:21.525Z,99893.98
2019-04-03T09:44:27.796Z,99891.02
2019-04-03T09:45:34.938Z,99892.70
2019-04-03T09:46:44.452Z,99888.11
2019-04-03T09:47:50.163Z,99894.45
2019-04-03T09:48:57.227Z,99886.56
2019-04-03T09:50:06.773Z,99887.28
2019-04-03T09:51:13.842Z,99886.91
2019-04-03T09:52:23.615Z,99881.89
2019-04-03T09:53:29.821Z,99879.02
2019-04-03T09:54:36.623Z,99872.11
2019-04-03T09:55:43.737Z,99875.81
2019-04-03T09:56:59.771Z,99872.88
2019-04-03T09:58:02.422Z,99871.66
2019-04-03T09:59:09.397Z,99876.94
2019-04-03T10:00:17.381Z,99881.91
2019-04-03T10:01:24.126Z,99892.60
2019-04-03T10:02:31.088Z,99895.11
2019-04-03T10:03:38.155Z,99891.30
2019-04-03T10:04:45.525Z,99901.16
2019-04-03T10:05:52.498Z,99899.21
2019-04-03T10:06:59.890Z,99908.30
2019-04-03T10:08:09.024Z,99901.89
2019-04-03T10:09:16.519Z,99909.68
2019-04-03T10:10:25.627Z,99910.51
2019-04-03T10:11:32.528Z,99904.35
2019-04-03T10:12:39.329Z,99904.76
2019-04-03T10:13:46.880Z,99902.81
2019-04-03T10:14:53.642Z,99911.47
2019-04-03T10:16:03.254Z,99910.35
2019-04-03T10:17:08.861Z,99906.43
2019-04-03T10:18:15.590Z,99904.41
2019-04-03T10:19:22.425Z,99902.72
2019-04-03T10:20:29.683Z,99897.51
2019-04-03T10:21:37.430Z,99908.85
2019-04-03T10:22:44.266Z,99907.14
2019-04-03T10:23:51.441Z,99906.05
2019-04-03T10:25:00.550Z,99899.12
2019-04-03T10:26:08.736Z,99902.52
2019-04-03T10:27:15.835Z,99899.89
2019-04-03T10:28:23.182Z,99900.48
2019-04-03T10:29:30.243Z,99900.22
2019-04-03T10:30:37.640Z,99901.94
2019-04-03T10:31:44.402Z,99909.91
2019-04-03T10:32:51.252Z,99905.80
2019-04-03T10:33:58.072Z,99914.84
2019-04-03T10:35:08.281Z,99912.09
2019-04-03T10:36:17.684Z,99910.30
2019-04-03T10:37:24.738Z,99911.05
2019-04-03T10:38:31.642Z,99905.00
2019-04-03T10:39:43.633Z,99904.77
2019-04-03T10:40:47.717Z,99903.34
2019-04-03T10:41:55.096Z,99900.20
2019-04-03T10:43:04.638Z,99906.62
2019-04-03T10:44:10.433Z,99901.55
2019-04-03T10:45:18.015Z,99898.16
2019-04-03T10:46:24.792Z,99896.42
2019-04-03T10:47:41.181Z,99890.59
2019-04-03T10:48:40.582Z,99887.48
2019-04-03T10:49:47.408Z,99881.42
2019-04-03T10:50:54.190Z,99878.41
2019-04-03T10:52:01.101Z,99874.55
2019-04-03T10:53:07.903Z,99871.53
2019-04-03T10:54:14.661Z,99864.61
2019-04-03T10:55:21.451Z,99868.66
2019-04-03T10:56:29.315Z,99872.56
2019-04-03T10:57:37.565Z,99883.47
2019-04-03T10:58:44.410Z,99883.60
2019-04-03T10:59:54.490Z,99889.88
2019-04-03T11:00:59.942Z,99885.73
2019-04-03T11:02:07.526Z,99881.92
2019-04-03T11:03:14.279Z,99872.24
2019-04-03T11:04:21.026Z,99866.85
2019-04-03T11:05:27.824Z,99862.39
2019-04-03T11:06:36.668Z,99861.49
2019-04-03T11:07:43.821Z,99861.38
2019-04-03T11:08:52.248Z,99866.25
2019-04-03T11:09:59.557Z,99867.50
2019-04-03T11:11:06.914Z,99862.63
2019-04-03T11:12:13.800Z,99861.94
2019-04-03T11:13:20.816Z,99859.16
2019-04-03T11:14:28.194Z,99857.75
2019-04-03T11:15:35.116Z,99852.96
2019-04-03T11:16:45.973Z,99851.92
2019-04-03T11:17:50.743Z,99846.05
2019-04-03T11:19:02.728Z,99847.91
2019-04-03T11:20:09.640Z,99848.09
2019-04-03T11:21:16.899Z,99845.50
2019-04-03T11:22:24.484Z,99840.46
2019-04-03T11:23:39.790Z,99842.82
2019-04-03T11:24:42.522Z,99837.97
2019-04-03T11:25:48.790Z,99843.74
2019-04-03T11:26:56.063Z,99846.30
2019-04-03T11:28:05.059Z,99840.52
2019-04-03T11:29:11.731Z,99839.36
2019-04-03T11:30:23.747Z,99845.12
2019-04-03T11:31:29.523Z,99847.75
2019-04-03T11:32:36.988Z,99856.39
2019-04-03T11:33:45.615Z,99860.66
2019-04-03T11:34:53.944Z,99858.11
2019-04-03T11:36:01.583Z,99860.34
2019-04-03T11:37:08.418Z,99855.64
2019-04-03T11:38:25.375Z,99855.16
2019-04-03T11:39:24.204Z,99861.25
2019-04-03T11:40:31.166Z,99856.09
2019-04-03T11:41:38.409Z,99857.58
2019-04-03T11:42:45.587Z,99856.31
2019-04-03T11:43:52.869Z,99853.55
2019-04-03T11:45:02.351Z,99849.33
2019-04-03T11:46:08.814Z,99844.97
2019-04-03T11:47:15.718Z,99839.23
2019-04-03T11:48:22.460Z,99839.94
2019-04-03T11:49:30.162Z,99840.95
2019-04-03T11:50:39.509Z,99837.11
2019-04-03T11:51:46.508Z,99833.45
2019-04-03T11:52:53.839Z,99841.59
2019-04-03T11:54:01.150Z,99835.61
2019-04-03T11:55:10.902Z,99845.05
2019-04-03T11:56:16.912Z,99842.00
2019-04-03T11:57:26.653Z,99838.21
2019-04-03T11:58:33.129Z,99839.72
2019-04-03T11:59:40.247Z,99833.53
2019-04-03T12:00:48.913Z,99829.47
2019-04-03T12:01:55.707Z,99817.29
2019-04-03T12:03:02.849Z,99817.23
2019-04-03T12:04:10.539Z,99812.41
2019-04-03T12:05:20.988Z,99807.73
2019-04-03T12:06:28.823Z,99807.16
2019-04-03T12:07:36.260Z,99797.02
2019-04-03T12:08:45.026Z,99799.58
2019-04-03T12:09:51.782Z,99793.45
2019-04-03T12:10:59.548Z,99792.45
2019-04-03T12:12:09.439Z,99790.59
2019-04-03T12:13:14.971Z,99788.26
2019-04-03T12:14:22.127Z,99790.77
2019-04-03T12:15:29.145Z,99788.26
2019-04-03T12:16:36.378Z,99787.09
2019-04-03T12:17:43.186Z,99787.44
2019-04-03T12:18:50.141Z,99784.30
2019-04-03T12:19:56.992Z,99781.61
2019-04-03T12:21:03.734Z,99783.81
2019-04-03T12:22:10.515Z,99791.52
2019-04-03T12:23:18.292Z,99793.62
2019-04-03T12:24:25.423Z,99801.38
2019-04-03T12:25:34.192Z,99805.11
2019-04-03T12:26:43.193Z,99798.71
2019-04-03T12:27:49.995Z,99798.52
2019-04-03T12:28:56.898Z,99803.53
2019-04-03T12:30:03.647Z,99801.85
2019-04-03T12:31:10.547Z,99802.79
2019-04-03T12:32:18.285Z,99797.59
2019-04-03T12:33:26.574Z,99803.55
2019-04-03T12:34:36.644Z,99790.23
2019-04-03T12:35:42.858Z,99787.84
2019-04-03T12:36:49.661Z,99785.50
2019-04-03T12:37:56.795Z,99784.23
2019-04-03T12:39:05.343Z,99782.96
2019-04-03T12:40:12.771Z,99776.18
2019-04-03T12:41:19.876Z,99777.77
2019-04-03T12:42:26.721Z,99780.80
2019-04-03T12:43:33.847Z,99780.39
2019-04-03T12:44:41.545Z,99774.59
2019-04-03T12:45:50.187Z,99768.36
2019-04-03T12:46:57.984Z,99753.56
2019-04-03T12:48:04.794Z,99752.48
2019-04-03T12:49:11.930Z,99754.08
2019-04-03T12:50:19.414Z,99742.45
2019-04-03T12:51:26.484Z,99751.00
2019-04-03T12:52:33.764Z,99751.65
2019-04-03T12:53:40.725Z,99765.53
2019-04-03T12:54:51.226Z,99773.43
2019-04-03T12:55:58.396Z,99769.70
2019-04-03T12:57:05.587Z,99767.91
2019-04-03T12:58:12.375Z,99761.50
2019-04-03T12:59:20.960Z,99761.95
2019-04-03T13:00:28.403Z,99770.59
2019-04-03T13:01:35.747Z,99775.42
2019-04-03T13:02:42.812Z,99789.28
2019-04-03T13:03:50.568Z,99800.83
2019-04-03T13:05:00.411Z,99800.49
2019-04-03T13:06:08.978Z,99803.36
2019-04-03T13:07:15.186Z,99803.95
2019-04-03T13:08:22.286Z,99795.36
2019-04-03T13:09:29.722Z,99796.55
2019-04-03T13:10:42.192Z,99796.70
2019-04-03T13:11:45.502Z,99800.80
2019-04-03T13:12:54.723Z,99801.69